This is the latest recevied weather packets stored in our database for station/object OH6HPS. If no packets are shown the sender has not sent any weather packets the latest 10 day(s).
| Time | Temp. | Humidity | Pressure | Rain* | Wind** | Luminosity | Snow |
|---|---|---|---|---|---|---|---|
| 1778008518 | 3.89° C | 70% | 1007.3 hPa | 0 mm | - | 0 W/m² | - |
| 1778007904 | 4.44° C | 69% | 1007.2 hPa | 0 mm | - | 0 W/m² | - |
| 1778007306 | 5° C | 68% | 1007.2 hPa | 0 mm | - | 0 W/m² | - |
| 1778006704 | 5° C | 66% | 1007.1 hPa | 0 mm | - | 0 W/m² | - |
| 1778006105 | 5.56° C | 64% | 1007 hPa | 0 mm | - | 0 W/m² | - |
| 1778005510 | 6.11° C | 63% | 1006.8 hPa | 0 mm | - | 5 W/m² | - |
| 1778004904 | 6.11° C | 61% | 1006.7 hPa | 0 mm | - | 12 W/m² | - |
| 1778004306 | 6.67° C | 59% | 1006.6 hPa | 0 mm | - | 12 W/m² | - |
| 1778003705 | 6.67° C | 58% | 1006.5 hPa | 0 mm | - | 14 W/m² | - |
| 1778003104 | 7.22° C | 56% | 1006.5 hPa | 0 mm | - | 21 W/m² | - |
| 1778002505 | 7.78° C | 55% | 1006.5 hPa | 0 mm | - | 25 W/m² | - |
| 1778001906 | 7.78° C | 55% | 1006.3 hPa | 0 mm | - | 48 W/m² | - |
| 1778001305 | 7.78° C | 53% | 1006.3 hPa | 0 mm | - | 39 W/m² | - |
| 1778000705 | 7.78° C | 52% | 1006.3 hPa | 0 mm | - | 35 W/m² | - |
| 1778000104 | 7.78° C | 51% | 1006.1 hPa | 0 mm | - | 35 W/m² | - |
| 1777999505 | 8.33° C | 50% | 1006.1 hPa | 0 mm | - | 30 W/m² | - |
| 1777998904 | 8.89° C | 48% | 1005.9 hPa | 0 mm | - | 37 W/m² | - |
| 1777998304 | 9.44° C | 48% | 1006 hPa | 0 mm | - | 92 W/m² | - |
| 1777997704 | 10° C | 46% | 1005.9 hPa | 0 mm | - | 202 W/m² | - |
| 1777997104 | 10.56° C | 46% | 1005.9 hPa | 0 mm | - | 239 W/m² | - |
| 1777996504 | 10° C | 47% | 1005.8 hPa | 0 mm | - | 271 W/m² | - |
| 1777995904 | 10° C | 49% | 1005.6 hPa | 0 mm | - | 306 W/m² | - |
| 1777995304 | 10.56° C | 45% | 1005.6 hPa | 0 mm | - | 53 W/m² | - |
| 1777994705 | 10.56° C | 46% | 1005.5 hPa | 0 mm | - | 334 W/m² | - |
| 1777994104 | 10.56° C | 47% | 1005.5 hPa | 0 mm | - | 348 W/m² | - |
* Rain latest hour (hover to see other rain measurements)
** Current wind speed in m/s (hover to see current wind gust speed)